Aérodrome :
LOGIN :

S'inscrire | Disclaimer

   EN    FR    IT 

 










Légende :    VFR   VFR Marginal   IFR   IFR Intensif   IFR Très Intensif
Visi : 
Plafond : 
>= 8 km
>= 3000ft
5 à 8 km
1000 à 3000 ft
1500m à 5 km
500 à 1000 ft
800 à 1500m
200 à 500 ft
< 800m
< 200 ft
Symboles :   Orages  Brouillard  Fortes neiges  Fortes précipitations  Vent > 20 kt
SIGMETs :   Divers  Orages  Givrage  Turbulence  Onde Orograph.  Cendres Volcan.







- Altitude de l'aérodrome : -11 ft
- Code IATA : AMS


EHAM - Amsterdam Schiphol

DERNIER METAR :
  • 121625Z 10008KT 070V140 9999 BKN027 04/M00 Q1025 NOSIG

METARs EXPIRÉS :
  • 121555Z 11007KT 9999 BKN027 04/M01 Q1025 NOSIG
  • 121525Z 10009KT 9999 FEW025 BKN031 04/M01 Q1025 NOSIG
  • 121455Z 10008KT 070V130 9999 FEW025 BKN032 04/M00 Q1025 NOSIG
  • 121425Z 11008KT 080V140 9999 FEW025 BKN032 04/00 Q1025 NOSIG
  • 121355Z 13009KT 090V150 9999 FEW023 BKN027 05/00 Q1025 NOSIG
  • 121325Z 09009KT 9999 FEW023 BKN027 05/00 Q1025 NOSIG

TAF TAF EHAM
Valide du 12 à 12h jusqu'au 13 à 18h UTC


121056Z 1212/1318 09008KT 9999 SCT030
BECMG 1221/1224 BKN012
PROB40 1300/1310 7000 BKN007
BECMG 1310/1313 SCT020
Pas de NOTAMs connus pour ce terrain.



MET'MAP, la Météo Aéronautique d'un coup d'oeil ! - Copyright ORBIFLY Décembre 2007 - Disclaimer

ORBIFLY MET'MAP TEAM :

Programmation & Développement : Alexandra Zaïnal
Conception & Développement : Baudouin d'Aumeries
Co-Programmation & Développement : Marc-Olivier Méhu
Soutien technique & logistique : Manuel Goepfert

Contact : metmap@orbifly.com




SOURCES & CREDITS :

   NOAA